Time;durP1;ratioP1;P1;durP2;ratioP2;P2;SDS_P1;SDS_P2;PMS_P1;PMS_P2;Temp;Humidity;BMP_temperature;BMP_pressure;BME280_temperature;BME280_humidity;BME280_pressure;Samples;Min_cycle;Max_cycle;Signal;HPM_P1;HPM_P2
2022/06/14 00:03:02;;;;;;;;;;;;;;;-140.72;100.00;52504.50;6304282;22;19937;-67
2022/06/14 00:05:28;;;;;;;;;;;;;;;-140.72;100.00;52439.56;6304182;22;19919;-68
2022/06/14 00:07:53;;;;;;;;;;;;;;;-140.72;100.00;52463.91;6277329;22;19967;-69
2022/06/14 00:10:18;;;;;;;;;;;;;;;-140.72;100.00;52476.09;6303818;22;19915;-68
2022/06/14 00:12:43;;;;;;;;;;;;;;;-140.72;100.00;52510.59;6303976;22;19930;-69
2022/06/14 00:15:09;;;;;;;;;;;;;;;-140.72;100.00;52484.19;6304192;22;19959;-68
2022/06/14 00:17:34;;;;;;;;;;;;;;;-140.72;100.00;52433.47;6303965;22;19911;-68
2022/06/14 00:19:59;;;;;;;;;;;;;;;-140.72;100.00;52492.31;6303822;22;19939;-68
2022/06/14 00:22:25;;;;;;;;;;;;;;;-140.72;100.00;52480.16;6303183;22;20279;-68
2022/06/14 00:24:50;;;;;;;;;;;;;;;-140.72;100.00;52512.59;6303146;22;19923;-68
2022/06/14 00:27:15;;;;;;;;;;;;;;;-140.72;100.00;52449.72;6277017;22;19911;-68
2022/06/14 00:29:41;;;;;;;;;;;;;;;-140.72;100.00;52482.16;6303492;22;19937;-69
2022/06/14 00:32:07;;;;;;;;;;;;;;;-140.72;100.00;52508.56;6277274;22;19899;-68
2022/06/14 00:34:32;;;;;;;;;;;;;;;-140.72;100.00;52443.63;6302830;22;19910;-67
2022/06/14 00:36:57;;;;;;;;;;;;;;;-140.72;100.00;52490.28;6303022;22;19918;-67
2022/06/14 00:39:23;;;;;;;;;;;;;;;-140.72;100.00;52496.38;6303549;22;19911;-68
2022/06/14 00:41:50;;;;;;;;;;;;;;;-140.72;100.00;52496.38;6303165;22;19915;-68
2022/06/14 00:44:20;;;;;;;;;;;;;;;-140.72;100.00;52490.28;6303184;22;19900;-69
2022/06/14 00:46:48;;;;;;;;;;;;;;;-140.72;100.00;52472.03;6276565;22;19922;-69
2022/06/14 00:49:24;;;;;;;;;;;;;;;-140.72;100.00;52526.81;6276262;22;19911;-68
2022/06/14 00:51:59;;;;;;;;;;;;;;;-140.72;100.00;52490.28;6303299;22;19899;-67
2022/06/14 00:54:27;;;;;;;;;;;;;;;-140.72;100.00;52500.44;6303145;22;19918;-67
2022/06/14 00:56:56;;;;;;;;;;;;;;;-140.72;100.00;52496.38;6302551;22;19963;-67
2022/06/14 00:59:40;;;;;;;;;;;;;;;-140.72;100.00;52486.22;6303309;22;19935;-68
2022/06/14 01:02:13;;;;;;;;;;;;;;;-140.72;100.00;52492.31;6303630;22;19919;-68
2022/06/14 01:04:39;;;;;;;;;;;;;;;-140.72;100.00;52492.31;6303112;22;19895;-67
2022/06/14 01:07:04;;;;;;;;;;;;;;;-140.72;100.00;52490.28;6302503;22;19915;-69
2022/06/14 01:09:48;;;;;;;;;;;;;;;-140.72;100.00;52508.56;6303596;22;19937;-67
2022/06/14 01:12:15;;;;;;;;;;;;;;;-140.72;100.00;52455.78;6303068;22;19895;-68
2022/06/14 01:14:43;;;;;;;;;;;;;;;-140.72;100.00;52514.63;6303453;22;19915;-69
2022/06/14 01:17:10;;;;;;;;;;;;;;;-140.72;100.00;52520.72;6302848;22;19943;-69
2022/06/14 01:19:35;;;;;;;;;;;;;;;-140.72;100.00;52500.44;6302852;22;19912;-68
2022/06/14 01:22:06;;;;;;;;;;;;;;;-140.72;100.00;52512.59;6302555;22;19923;-68
2022/06/14 01:24:32;;;;;;;;;;;;;;;-140.72;100.00;52530.88;6302749;22;19926;-68
2022/06/14 01:26:58;;;;;;;;;;;;;;;-140.72;100.00;52474.06;6303139;22;19903;-67
2022/06/14 01:29:25;;;;;;;;;;;;;;;-140.72;100.00;52492.31;6302397;22;19930;-67
2022/06/14 01:31:54;;;;;;;;;;;;;;;-140.72;100.00;52476.09;6301863;22;19907;-67
2022/06/14 01:34:19;;;;;;;;;;;;;;;-140.72;100.00;52504.50;6301922;22;19969;-67
2022/06/14 01:36:44;;;;;;;;;;;;;;;-140.72;100.00;52506.53;6302160;22;19935;-69
2022/06/14 01:39:13;;;;;;;;;;;;;;;-140.72;100.00;52516.66;6302841;22;19918;-68
2022/06/14 01:41:47;;;;;;;;;;;;;;;-140.72;100.00;52516.66;6276965;22;19899;-68
2022/06/14 01:44:18;;;;;;;;;;;;;;;-140.72;100.00;52478.13;6303178;22;19922;-68
2022/06/14 01:47:04;;;;;;;;;;;;;;;-140.72;100.00;52478.13;6274273;22;19915;-69
2022/06/14 01:52:30;;;;;;;;;;;;;;;-140.72;100.00;52494.34;6302573;22;19918;-68
2022/06/14 01:55:10;;;;;;;;;;;;;;;-140.72;100.00;52470.00;6302101;22;19899;-67
2022/06/14 01:57:54;;;;;;;;;;;;;;;-140.72;100.00;52504.50;6278071;22;19911;-67
2022/06/14 02:00:25;;;;;;;;;;;;;;;-140.72;100.00;52504.50;6304859;22;19911;-67
2022/06/14 02:04:36;;;;;;;;;;;;;;;-140.72;100.00;52512.59;6278217;22;19919;-67
2022/06/14 02:05:41;;;;;;;;;;;;;;;-140.72;100.00;52534.94;6304495;22;19911;-68
2022/06/14 02:08:14;;;;;;;;;;;;;;;-140.72;100.00;52512.59;6277966;22;19899;-67
2022/06/14 02:10:42;;;;;;;;;;;;;;;-140.72;100.00;52492.31;6304225;22;19904;-68
2022/06/14 02:13:07;;;;;;;;;;;;;;;-140.72;100.00;52514.63;6277735;22;19902;-68
2022/06/14 02:15:45;;;;;;;;;;;;;;;-140.72;100.00;52504.50;6304081;22;19915;-69
2022/06/14 02:18:18;;;;;;;;;;;;;;;-140.72;100.00;52459.84;6304783;22;19919;-68
2022/06/14 02:20:48;;;;;;;;;;;;;;;-140.72;100.00;52504.50;6304883;22;19899;-69
2022/06/14 02:23:14;;;;;;;;;;;;;;;-140.72;100.00;52488.25;6304382;22;19945;-68
2022/06/14 02:25:46;;;;;;;;;;;;;;;-140.72;100.00;52496.38;6303843;22;19912;-67
2022/06/14 02:28:17;;;;;;;;;;;;;;;-140.72;100.00;52504.50;6304409;22;19915;-67
2022/06/14 02:30:46;;;;;;;;;;;;;;;-140.72;100.00;52480.16;6304182;22;19922;-68
2022/06/14 03:32:16;;;;;;;;;;;;;;;-140.72;100.00;52514.63;6287256;22;19918;-67
2022/06/14 03:34:51;;;;;;;;;;;;;;;-140.72;100.00;52459.84;6296601;22;19946;-68
2022/06/14 03:37:17;;;;;;;;;;;;;;;-140.72;100.00;52512.59;6297304;22;19927;-67
2022/06/14 03:39:51;;;;;;;;;;;;;;;-140.72;100.00;52506.53;6297096;22;19923;-66
2022/06/14 03:42:17;;;;;;;;;;;;;;;-140.72;100.00;52514.63;6295724;22;19971;-68
2022/06/14 03:44:42;;;;;;;;;;;;;;;-140.72;100.00;52494.34;6296358;22;19915;-68
2022/06/14 03:47:14;;;;;;;;;;;;;;;-140.72;100.00;52476.09;6296647;22;19915;-67
2022/06/14 03:49:45;;;;;;;;;;;;;;;-140.72;100.00;52506.53;6269631;22;19918;-67
2022/06/14 03:52:39;;;;;;;;;;;;;;;-140.72;100.00;52522.75;6268564;22;19918;-68
2022/06/14 03:55:11;;;;;;;;;;;;;;;-140.72;100.00;52480.16;6212020;22;19913;-67
2022/06/14 03:57:39;;;;;;;;;;;;;;;-140.72;100.00;52488.25;6269269;22;19912;-67
2022/06/14 04:00:04;;;;;;;;;;;;;;;-140.72;100.00;52478.13;6296421;22;19911;-69
2022/06/14 04:05:24;;;;;;;;;;;;;;;-140.72;100.00;52492.31;6297009;22;19922;-68
2022/06/14 04:07:59;;;;;;;;;;;;;;;-140.72;100.00;52498.41;6297365;22;19934;-66
2022/06/14 04:10:34;;;;;;;;;;;;;;;-140.72;100.00;52484.19;6296288;22;19911;-67
2022/06/14 04:13:19;;;;;;;;;;;;;;;-140.72;100.00;52520.72;6267945;22;19918;-68
2022/06/14 04:15:48;;;;;;;;;;;;;;;-140.72;100.00;52480.16;6295391;22;19955;-68
2022/06/14 04:18:36;;;;;;;;;;;;;;;-140.72;100.00;52488.25;6293369;22;19922;-67
2022/06/14 04:21:13;;;;;;;;;;;;;;;-140.72;100.00;52528.84;6293447;22;19968;-68
2022/06/14 04:23:50;;;;;;;;;;;;;;;-140.72;100.00;52455.78;6297112;22;19934;-68
2022/06/14 04:26:21;;;;;;;;;;;;;;;-140.72;100.00;52508.56;6293492;22;19911;-67
2022/06/14 04:28:55;;;;;;;;;;;;;;;-140.72;100.00;52504.50;6290399;22;19915;-68
2022/06/14 04:31:28;;;;;;;;;;;;;;;-140.72;100.00;52480.16;6288265;22;19915;-68
2022/06/14 04:33:57;;;;;;;;;;;;;;;-140.72;100.00;52522.75;6289017;22;19911;-67
2022/06/14 04:36:35;;;;;;;;;;;;;;;-140.72;100.00;52474.06;6290157;22;20121;-68
2022/06/14 04:39:06;;;;;;;;;;;;;;;-140.72;100.00;52472.03;6289830;22;19926;-68
2022/06/14 04:41:34;;;;;;;;;;;;;;;-140.72;100.00;52463.91;6290738;22;19939;-69
2022/06/14 04:44:02;;;;;;;;;;;;;;;-140.72;100.00;52463.91;6256912;22;19922;-69
2022/06/14 04:46:31;;;;;;;;;;;;;;;-140.72;100.00;52459.84;6284502;22;19926;-69
2022/06/14 04:49:19;;;;;;;;;;;;;;;-140.72;100.00;52480.16;6286218;22;19994;-69
2022/06/14 04:51:44;;;;;;;;;;;;;;;-140.72;100.00;52411.16;6285996;22;20247;-70
2022/06/14 04:54:21;;;;;;;;;;;;;;;-140.72;100.00;52451.72;6286821;22;19911;-69
2022/06/14 04:57:00;;;;;;;;;;;;;;;-140.72;100.00;52423.31;6287311;22;20264;-70
2022/06/14 05:00:01;;;;;;;;;;;;;;;-140.72;100.00;52461.88;6288613;22;19969;-70
2022/06/14 05:02:29;;;;;;;;;;;;;;;-140.72;100.00;52463.91;6200237;23;19968;-67
2022/06/14 05:04:58;;;;;;;;;;;;;;;-140.72;100.00;52427.38;6275694;22;19918;-70
2022/06/14 05:07:23;;;;;;;;;;;;;;;-140.72;100.00;52449.72;6292591;22;19968;-70
2022/06/14 05:09:59;;;;;;;;;;;;;;;-140.72;100.00;52437.53;6292326;22;19955;-68
2022/06/14 05:12:34;;;;;;;;;;;;;;;-140.72;100.00;52455.78;6296535;22;20308;-67
2022/06/14 05:15:07;;;;;;;;;;;;;;;-140.72;100.00;52439.56;6297065;22;19950;-69
2022/06/14 05:17:36;;;;;;;;;;;;;;;-140.72;100.00;52455.78;6297269;22;19964;-68
2022/06/14 05:20:13;;;;;;;;;;;;;;;-140.72;100.00;52423.31;6270068;22;19911;-68
2022/06/14 05:22:46;;;;;;;;;;;;;;;-140.72;100.00;52439.56;6296692;22;19962;-68
2022/06/14 05:25:12;;;;;;;;;;;;;;;-140.72;100.00;52445.66;6297661;22;19906;-67
2022/06/14 05:27:57;;;;;;;;;;;;;;;-140.72;100.00;52451.72;6297415;22;20269;-67
2022/06/14 05:30:41;;;;;;;;;;;;;;;-140.72;100.00;52455.78;6268899;22;19923;-68
2022/06/14 05:33:21;;;;;;;;;;;;;;;-140.72;100.00;52407.09;6298642;22;19954;-68
2022/06/14 05:35:52;;;;;;;;;;;;;;;-140.72;100.00;52407.09;6298908;22;19911;-69
2022/06/14 05:38:32;;;;;;;;;;;;;;;-140.72;100.00;52447.69;6298876;22;19919;-66
2022/06/14 05:41:03;;;;;;;;;;;;;;;-140.72;100.00;52421.28;6298251;22;19910;-67
2022/06/14 05:43:28;;;;;;;;;;;;;;;-140.72;100.00;52421.28;6298438;22;19922;-66
2022/06/14 05:46:00;;;;;;;;;;;;;;;-140.72;100.00;52419.28;6272382;22;19927;-67
2022/06/14 05:48:29;;;;;;;;;;;;;;;-140.72;100.00;52398.97;6299182;22;19911;-66
2022/06/14 05:50:56;;;;;;;;;;;;;;;-140.72;100.00;52398.97;6297541;22;20240;-68
2022/06/14 05:53:37;;;;;;;;;;;;;;;-140.72;100.00;52413.19;6293339;22;19934;-69
2022/06/14 05:56:09;;;;;;;;;;;;;;;-140.72;100.00;52447.69;6268157;22;19915;-70
2022/06/14 05:58:37;;;;;;;;;;;;;;;-140.72;100.00;52398.97;6294713;22;19964;-68
2022/06/14 06:01:09;;;;;;;;;;;;;;;-140.72;100.00;52403.03;6295527;22;19915;-71
2022/06/14 06:03:54;;;;;;;;;;;;;;;-140.72;100.00;52427.38;6269673;22;20222;-68
2022/06/14 06:06:27;;;;;;;;;;;;;;;-140.72;100.00;52411.16;6267252;22;19943;-68
2022/06/14 06:08:57;;;;;;;;;;;;;;;-140.72;100.00;52386.81;6271584;22;19911;-67
2022/06/14 06:11:27;;;;;;;;;;;;;;;-140.72;100.00;52386.81;6301430;22;19915;-67
2022/06/14 06:13:58;;;;;;;;;;;;;;;-140.72;100.00;52392.88;6273051;22;19959;-67
2022/06/14 06:17:13;;;;;;;;;;;;;;;-140.72;100.00;52405.06;6301008;22;19961;-67
2022/06/14 06:19:19;;;;;;;;;;;;;;;-140.72;100.00;52398.97;6280487;22;19962;-67
2022/06/14 06:21:45;;;;;;;;;;;;;;;-140.72;100.00;52403.03;6302088;22;19900;-68
2022/06/14 06:24:20;;;;;;;;;;;;;;;-140.72;100.00;52392.88;6275844;22;19923;-68
2022/06/14 06:26:49;;;;;;;;;;;;;;;-140.72;100.00;52354.34;6302578;22;19911;-68
2022/06/14 06:29:22;;;;;;;;;;;;;;;-140.72;100.00;52338.09;6303318;22;19911;-67
2022/06/14 06:31:47;;;;;;;;;;;;;;;-140.72;100.00;52354.34;6275841;22;19923;-66
2022/06/14 06:34:14;;;;;;;;;;;;;;;-140.72;100.00;52342.16;6303494;22;19947;-67
2022/06/14 06:36:51;;;;;;;;;;;;;;;-140.72;100.00;52354.34;6277241;22;19918;-67
2022/06/14 06:39:36;;;;;;;;;;;;;;;-140.72;100.00;52366.50;6276003;22;19912;-66
2022/06/14 06:42:21;;;;;;;;;;;;;;;-140.72;100.00;52382.75;6302532;22;19911;-67
2022/06/14 06:45:05;;;;;;;;;;;;;;;-140.72;100.00;52386.81;6280001;22;19895;-69
2022/06/14 06:47:36;;;;;;;;;;;;;;;-140.72;100.00;52338.09;6261314;22;20320;-69
2022/06/14 06:50:22;;;;;;;;;;;;;;;-140.72;100.00;52330.00;6261590;22;20326;-69
2022/06/14 06:52:53;;;;;;;;;;;;;;;-140.72;100.00;52330.00;6260188;22;19918;-69
2022/06/14 06:55:37;;;;;;;;;;;;;;;-140.72;100.00;52350.28;6288604;22;19955;-69
2022/06/14 06:58:05;;;;;;;;;;;;;;;-140.72;100.00;52289.41;6287531;22;19915;-69
2022/06/14 07:00:32;;;;;;;;;;;;;;;-140.72;100.00;52311.72;6289143;22;19911;-69
2022/06/14 07:03:01;;;;;;;;;;;;;;;-140.72;100.00;52321.88;6290048;22;19919;-69
2022/06/14 07:05:27;;;;;;;;;;;;;;;-140.72;100.00;52338.09;6288049;22;19911;-69
2022/06/14 07:07:55;;;;;;;;;;;;;;;-140.72;100.00;52315.78;6287760;22;19998;-69
2022/06/14 07:10:37;;;;;;;;;;;;;;;-140.72;100.00;52327.97;6288925;22;19912;-68
2022/06/14 07:13:02;;;;;;;;;;;;;;;-140.72;100.00;52311.72;6288509;22;20291;-69
2022/06/14 07:15:48;;;;;;;;;;;;;;;-140.72;100.00;52301.59;6289262;22;19911;-69
2022/06/14 07:18:19;;;;;;;;;;;;;;;-140.72;100.00;52346.22;6260665;22;20256;-70
2022/06/14 07:20:53;;;;;;;;;;;;;;;-140.72;100.00;52313.75;6289173;22;19917;-68
2022/06/14 07:23:34;;;;;;;;;;;;;;;-140.72;100.00;52275.19;6260681;22;19915;-69
2022/06/14 07:26:15;;;;;;;;;;;;;;;-140.72;100.00;52258.97;6287911;22;19918;-69
2022/06/14 07:29:04;;;;;;;;;;;;;;;-140.72;100.00;52301.59;6287042;22;19912;-68
2022/06/14 07:31:49;;;;;;;;;;;;;;;-140.72;100.00;52283.31;6287135;22;19915;-68
2022/06/14 07:34:15;;;;;;;;;;;;;;;-140.72;100.00;52303.59;6285976;22;19918;-70
2022/06/14 07:36:58;;;;;;;;;;;;;;;-140.72;100.00;52269.13;6263262;22;19959;-69
2022/06/14 07:39:29;;;;;;;;;;;;;;;-140.72;100.00;52287.38;6289727;22;19915;-69
2022/06/14 07:42:12;;;;;;;;;;;;;;;-140.72;100.00;52299.56;6290098;22;19911;-69
2022/06/14 07:44:49;;;;;;;;;;;;;;;-140.72;100.00;52297.53;6287938;22;19915;-69
2022/06/14 07:47:18;;;;;;;;;;;;;;;-140.72;100.00;52267.09;6262882;22;19911;-68
2022/06/14 07:49:46;;;;;;;;;;;;;;;-140.72;100.00;52248.81;6289442;22;19919;-69
2022/06/14 07:52:20;;;;;;;;;;;;;;;-140.72;100.00;52283.31;6287825;22;19911;-69
2022/06/14 07:54:48;;;;;;;;;;;;;;;-140.72;100.00;52248.81;6259958;22;20248;-69
2022/06/14 07:57:26;;;;;;;;;;;;;;;-140.72;100.00;52214.34;6288790;22;19915;-69
2022/06/14 07:59:54;;;;;;;;;;;;;;;-140.72;100.00;52222.44;6288643;22;19922;-70
2022/06/14 08:02:26;;;;;;;;;;;;;;;-140.72;100.00;52212.31;6290328;22;19961;-71
2022/06/14 08:04:55;;;;;;;;;;;;;;;-140.72;100.00;52210.28;6289629;22;19918;-70
2022/06/14 08:07:21;;;;;;;;;;;;;;;-140.72;100.00;52187.97;6261749;22;19911;-69
2022/06/14 08:09:59;;;;;;;;;;;;;;;-140.72;100.00;52212.31;6262202;22;19922;-69
2022/06/14 08:12:32;;;;;;;;;;;;;;;-140.72;100.00;52177.81;6289329;22;19911;-69
2022/06/14 08:15:06;;;;;;;;;;;;;;;-140.72;100.00;52224.47;6287729;22;19995;-69
2022/06/14 08:17:39;;;;;;;;;;;;;;;-140.72;100.00;52192.00;6286404;22;19915;-69
2022/06/14 08:20:09;;;;;;;;;;;;;;;-140.72;100.00;52183.91;6286881;22;19911;-69
2022/06/14 08:22:37;;;;;;;;;;;;;;;-140.72;100.00;52173.75;6286904;22;19982;-69
2022/06/14 08:25:07;;;;;;;;;;;;;;;-140.72;100.00;52143.31;6286238;22;19923;-69
2022/06/14 08:27:37;;;;;;;;;;;;;;;-140.72;100.00;52192.00;6288930;22;19912;-70
2022/06/14 08:30:08;;;;;;;;;;;;;;;-140.72;100.00;52137.22;6287565;22;19915;-69
2022/06/14 08:32:36;;;;;;;;;;;;;;;-140.72;100.00;52127.09;6285352;22;19930;-70
2022/06/14 08:35:07;;;;;;;;;;;;;;;-140.72;100.00;52112.88;6287796;22;19982;-69
2022/06/14 08:37:35;;;;;;;;;;;;;;;-140.72;100.00;52127.09;6259989;22;19955;-69
2022/06/14 08:40:30;;;;;;;;;;;;;;;-140.72;100.00;52123.03;6259636;22;20244;-69
2022/06/14 08:43:01;;;;;;;;;;;;;;;-140.72;100.00;52094.63;6248586;22;19930;-70
2022/06/14 08:45:36;;;;;;;;;;;;;;;-140.72;100.00;52112.88;6287097;22;19911;-69
2022/06/14 08:48:19;;;;;;;;;;;;;;;-140.72;100.00;52082.44;6285440;22;19930;-70
2022/06/14 08:50:51;;;;;;;;;;;;;;;-140.72;100.00;52033.75;6259286;22;19955;-70
2022/06/14 08:53:32;;;;;;;;;;;;;;;-140.72;100.00;52082.44;6285106;22;19959;-70
2022/06/14 08:56:12;;;;;;;;;;;;;;;-140.72;100.00;52074.34;6285858;22;19985;-70
2022/06/14 08:58:41;;;;;;;;;;;;;;;-140.72;100.00;52029.69;6258759;22;20034;-70
2022/06/14 09:01:27;;;;;;;;;;;;;;;-140.72;100.00;52023.59;6285343;22;19931;-70
2022/06/14 09:04:07;;;;;;;;;;;;;;;-140.72;100.00;52011.44;6259054;22;20004;-70
2022/06/14 09:06:44;;;;;;;;;;;;;;;-140.72;100.00;52027.66;6286588;22;19976;-69
2022/06/14 09:09:30;;;;;;;;;;;;;;;-140.72;100.00;52116.94;6260940;22;19994;-71
2022/06/14 09:12:34;;;;;;;;;;;;;;;-140.72;100.00;52196.06;6266500;22;19986;-70
2022/06/14 09:15:11;;;;;;;;;;;;;;;-140.72;100.00;52200.13;6161176;23;20245;-70
2022/06/14 09:17:42;;;;;;;;;;;;;;;-140.72;100.00;52254.91;6192025;23;20018;-70
2022/06/14 09:20:18;;;;;;;;;;;;;;;-140.72;100.00;52254.91;6242576;22;20340;-70
2022/06/14 09:22:59;;;;;;;;;;;;;;;-140.72;100.00;52220.41;6286119;22;20346;-70
2022/06/14 09:25:30;;;;;;;;;;;;;;;-140.72;100.00;52256.94;6286005;22;19911;-70
2022/06/14 09:27:55;;;;;;;;;;;;;;;-140.72;100.00;52256.94;6286509;22;20245;-69
2022/06/14 09:30:39;;;;;;;;;;;;;;;-140.72;100.00;52210.28;6259818;22;19919;-70
2022/06/14 09:33:10;;;;;;;;;;;;;;;-140.72;100.00;52185.94;6287270;22;19916;-69
2022/06/14 09:35:57;;;;;;;;;;;;;;;-140.72;100.00;52194.03;6260687;22;19912;-70
2022/06/14 09:38:31;;;;;;;;;;;;;;;-140.72;100.00;52202.16;6287091;22;20291;-69
2022/06/14 09:41:14;;;;;;;;;;;;;;;-140.72;100.00;52192.00;6286885;22;19956;-70
2022/06/14 09:43:50;;;;;;;;;;;;;;;-140.72;100.00;52206.22;6287335;22;19912;-70
2022/06/14 09:46:18;;;;;;;;;;;;;;;-140.72;100.00;52216.34;6286415;22;19919;-71
2022/06/14 09:49:02;;;;;;;;;;;;;;;-140.72;100.00;52196.06;6286323;22;19979;-69
2022/06/14 09:51:27;;;;;;;;;;;;;;;-140.72;100.00;52234.63;6257984;22;20321;-70
2022/06/14 09:54:10;;;;;;;;;;;;;;;-140.72;100.00;52187.97;6286703;22;19915;-70
2022/06/14 09:56:45;;;;;;;;;;;;;;;-140.72;100.00;52143.31;6286556;22;19918;-70
2022/06/14 09:59:10;;;;;;;;;;;;;;;-140.72;100.00;52192.00;6286206;22;19915;-70
2022/06/14 10:01:47;;;;;;;;;;;;;;;-140.72;100.00;52208.25;6286836;22;19918;-70
2022/06/14 10:04:13;;;;;;;;;;;;;;;-140.72;100.00;52194.03;6287623;22;19921;-70
2022/06/14 10:07:17;;;;;;;;;;;;;;;-140.72;100.00;52240.72;6260245;22;19911;-70
2022/06/14 10:09:54;;;;;;;;;;;;;;;-140.72;100.00;52220.41;6159166;23;19923;-70
2022/06/14 10:12:20;;;;;;;;;;;;;;;-140.72;100.00;52187.97;6193100;23;19922;-70
2022/06/14 10:14:51;;;;;;;;;;;;;;;-140.72;100.00;52177.81;6236062;22;20012;-70
2022/06/14 10:17:22;;;;;;;;;;;;;;;-140.72;100.00;52187.97;6286530;22;19912;-70
2022/06/14 10:19:50;;;;;;;;;;;;;;;-140.72;100.00;52171.72;6286859;22;19957;-70
2022/06/14 10:22:24;;;;;;;;;;;;;;;-140.72;100.00;52143.31;6287245;22;19919;-70
2022/06/14 10:25:00;;;;;;;;;;;;;;;-140.72;100.00;52159.56;6287493;22;20281;-70
2022/06/14 10:30:45;;;;;;;;;;;;;;;-140.72;100.00;52137.22;6291753;22;19958;-70
2022/06/14 10:33:24;;;;;;;;;;;;;;;-140.72;100.00;52100.72;6287576;22;19919;-69
2022/06/14 10:35:50;;;;;;;;;;;;;;;-140.72;100.00;52167.66;6260793;22;19912;-70
2022/06/14 10:38:18;;;;;;;;;;;;;;;-140.72;100.00;52147.38;6287433;22;19911;-71
2022/06/14 10:40:46;;;;;;;;;;;;;;;-140.72;100.00;52145.34;6260670;22;20348;-70
2022/06/14 10:43:11;;;;;;;;;;;;;;;-140.72;100.00;52127.09;6286733;22;19911;-70
2022/06/14 10:45:47;;;;;;;;;;;;;;;-140.72;100.00;52094.63;6287555;22;19911;-69
2022/06/14 10:48:19;;;;;;;;;;;;;;;-140.72;100.00;52116.94;6259256;22;20012;-70
2022/06/14 10:51:03;;;;;;;;;;;;;;;-140.72;100.00;52070.28;6259730;22;20303;-71
2022/06/14 10:53:34;;;;;;;;;;;;;;;-140.72;100.00;52031.72;6286862;22;19927;-71
2022/06/14 10:56:18;;;;;;;;;;;;;;;-140.72;100.00;51976.94;6286547;22;19911;-70
2022/06/14 10:59:07;;;;;;;;;;;;;;;-140.72;100.00;51976.94;6261007;22;19949;-70
2022/06/14 11:01:32;;;;;;;;;;;;;;;-140.72;100.00;51861.28;6287401;22;20060;-71
2022/06/14 11:04:16;;;;;;;;;;;;;;;-140.72;100.00;51786.22;6287560;22;19912;-70
2022/06/14 11:06:47;;;;;;;;;;;;;;;-140.72;100.00;51826.81;6287770;22;20301;-70
2022/06/14 11:09:25;;;;;;;;;;;;;;;-140.72;100.00;51875.50;6261155;22;19922;-69
2022/06/14 11:11:50;;;;;;;;;;;;;;;-140.72;100.00;51810.56;6260081;22;19912;-68
2022/06/14 11:14:22;;;;;;;;;;;;;;;-140.72;100.00;51804.50;6288739;22;19986;-69
2022/06/14 11:17:04;;;;;;;;;;;;;;;-140.72;100.00;51800.44;6288942;22;19911;-70
2022/06/14 11:19:44;;;;;;;;;;;;;;;-140.72;100.00;51733.47;6288733;22;19918;-69
2022/06/14 11:22:47;;;;;;;;;;;;;;;-140.72;100.00;51737.53;6260784;22;19911;-70
2022/06/14 11:25:13;;;;;;;;;;;;;;;-140.72;100.00;51761.88;6166824;23;19959;-70
2022/06/14 11:27:38;;;;;;;;;;;;;;;-140.72;100.00;51749.72;6193739;23;19912;-69
2022/06/14 11:30:03;;;;;;;;;;;;;;;-140.72;100.00;51879.56;6235635;22;20340;-69
2022/06/14 11:32:31;;;;;;;;;;;;;;;-140.72;100.00;51991.16;6260722;22;19922;-69
2022/06/14 11:34:59;;;;;;;;;;;;;;;-140.72;100.00;52070.28;6287948;22;19922;-69
2022/06/14 11:37:27;;;;;;;;;;;;;;;-140.72;100.00;52015.50;6261336;22;19933;-69
2022/06/14 11:40:02;;;;;;;;;;;;;;;-140.72;100.00;52052.00;6287562;22;19949;-69
2022/06/14 11:42:36;;;;;;;;;;;;;;;-140.72;100.00;51950.56;6287284;22;19911;-69
2022/06/14 11:45:10;;;;;;;;;;;;;;;-140.72;100.00;51875.50;6288732;22;19994;-69
2022/06/14 11:47:41;;;;;;;;;;;;;;;-140.72;100.00;51770.00;6285562;22;20244;-68
2022/06/14 11:50:06;;;;;;;;;;;;;;;-140.72;100.00;51733.47;6283327;22;19959;-68
2022/06/14 11:52:50;;;;;;;;;;;;;;;-140.72;100.00;51676.69;6257384;22;19968;-70
2022/06/14 11:55:31;;;;;;;;;;;;;;;-140.72;100.00;51765.94;6258593;22;19934;-69
2022/06/14 11:58:10;;;;;;;;;;;;;;;-140.72;100.00;51701.03;6285073;22;19912;-68
2022/06/14 12:00:54;;;;;;;;;;;;;;;-140.72;100.00;51717.25;6285135;22;19911;-69
2022/06/14 12:03:23;;;;;;;;;;;;;;;-140.72;100.00;51701.03;6284291;22;20329;-69
2022/06/14 12:05:58;;;;;;;;;;;;;;;-140.72;100.00;51786.22;6283901;22;20391;-70
2022/06/14 12:08:48;;;;;;;;;;;;;;;-140.72;100.00;51855.22;6285168;22;19919;-70
2022/06/14 12:11:35;;;;;;;;;;;;;;;-140.72;100.00;51891.72;6284379;22;19990;-68
2022/06/14 12:14:06;;;;;;;;;;;;;;;-140.72;100.00;51916.06;6256828;22;19911;-69
2022/06/14 12:16:37;;;;;;;;;;;;;;;-140.72;100.00;51968.81;6284789;22;19911;-68
2022/06/14 12:19:06;;;;;;;;;;;;;;;-140.72;100.00;51966.81;6285024;22;19915;-69
2022/06/14 12:21:35;;;;;;;;;;;;;;;-140.72;100.00;52005.34;6284375;22;19911;-69
2022/06/14 12:24:04;;;;;;;;;;;;;;;-140.72;100.00;52021.56;6285129;22;19986;-69
2022/06/14 12:26:51;;;;;;;;;;;;;;;-140.72;100.00;52062.16;6285001;22;19935;-70
2022/06/14 12:29:19;;;;;;;;;;;;;;;-140.72;100.00;52045.94;6284430;22;19911;-68
2022/06/14 12:31:44;;;;;;;;;;;;;;;-140.72;100.00;52086.50;6284964;22;19915;-69
2022/06/14 12:34:18;;;;;;;;;;;;;;;-140.72;100.00;52078.38;6286246;22;19921;-69
2022/06/14 12:36:55;;;;;;;;;;;;;;;-140.72;100.00;52068.25;6257877;22;19937;-68
2022/06/14 12:39:27;;;;;;;;;;;;;;;-140.72;100.00;52066.22;6287691;22;19951;-68
2022/06/14 12:41:59;;;;;;;;;;;;;;;-140.72;100.00;52080.41;6287151;22;19977;-68
2022/06/14 12:44:47;;;;;;;;;;;;;;;-140.72;100.00;52108.81;6287557;22;19919;-68
2022/06/14 12:47:16;;;;;;;;;;;;;;;-140.72;100.00;52102.75;6235783;22;19915;-68
2022/06/14 12:49:45;;;;;;;;;;;;;;;-140.72;100.00;52153.47;6287824;22;20244;-68
2022/06/14 12:52:13;;;;;;;;;;;;;;;-140.72;100.00;51954.63;6287160;22;19957;-68
2022/06/14 12:54:41;;;;;;;;;;;;;;;-140.72;100.00;51912.03;6284980;22;20023;-68
2022/06/14 12:57:11;;;;;;;;;;;;;;;-140.72;100.00;51824.78;6259361;22;20283;-69
2022/06/14 12:59:39;;;;;;;;;;;;;;;-140.72;100.00;51936.38;6286673;22;19997;-70
2022/06/14 13:02:12;;;;;;;;;;;;;;;-140.72;100.00;51948.53;6285135;22;19917;-69
2022/06/14 13:04:50;;;;;;;;;;;;;;;-140.72;100.00;52033.75;6285909;22;20241;-69
2022/06/14 13:07:34;;;;;;;;;;;;;;;-140.72;100.00;52003.31;6286104;22;19912;-69
2022/06/14 13:10:19;;;;;;;;;;;;;;;-140.72;100.00;51910.00;6285865;22;19915;-68
2022/06/14 13:12:47;;;;;;;;;;;;;;;-140.72;100.00;51814.63;6285817;22;19911;-70
2022/06/14 13:15:19;;;;;;;;;;;;;;;-140.72;100.00;51851.16;6284290;22;19922;-70
2022/06/14 13:17:50;;;;;;;;;;;;;;;-140.72;100.00;51784.19;6284472;22;19912;-69
2022/06/14 13:20:34;;;;;;;;;;;;;;;-140.72;100.00;51743.63;6285746;22;19911;-70
2022/06/14 13:23:02;;;;;;;;;;;;;;;-140.72;100.00;51747.69;6295717;22;19911;-67
2022/06/14 13:25:42;;;;;;;;;;;;;;;-140.72;100.00;51729.44;6269877;22;19931;-68
2022/06/14 13:28:30;;;;;;;;;;;;;;;-140.72;100.00;51723.34;6296818;22;19911;-68
2022/06/14 13:31:08;;;;;;;;;;;;;;;-140.72;100.00;51749.72;6296170;22;19923;-68
2022/06/14 13:33:51;;;;;;;;;;;;;;;-140.72;100.00;51743.63;6295234;22;19915;-68
2022/06/14 13:36:17;;;;;;;;;;;;;;;-140.72;100.00;51741.59;6269429;22;19918;-67
2022/06/14 13:38:51;;;;;;;;;;;;;;;-140.72;100.00;51770.00;6294756;22;19915;-68
2022/06/14 13:41:37;;;;;;;;;;;;;;;-140.72;100.00;51849.13;6295787;22;19912;-67
2022/06/14 13:44:02;;;;;;;;;;;;;;;-140.72;100.00;51869.41;6294718;22;19911;-68
2022/06/14 13:46:33;;;;;;;;;;;;;;;-140.72;100.00;51871.44;6295235;22;19922;-68
2022/06/14 13:49:15;;;;;;;;;;;;;;;-140.72;100.00;51885.66;6294770;22;19925;-67
2022/06/14 13:51:46;;;;;;;;;;;;;;;-140.72;100.00;51814.63;6294826;22;19912;-68
2022/06/14 13:54:18;;;;;;;;;;;;;;;-140.72;100.00;51810.56;6298532;22;19911;-67
2022/06/14 13:56:48;;;;;;;;;;;;;;;-140.72;100.00;51847.09;6298526;22;19911;-67
2022/06/14 13:59:16;;;;;;;;;;;;;;;-140.72;100.00;51903.91;6298371;22;19959;-68